createdAt,value
2019-04-07T00:00:41.775Z,54.77
2019-04-07T00:03:08.493Z,55.42
2019-04-07T00:05:35.668Z,55.74
2019-04-07T00:08:03.358Z,55.74
2019-04-07T00:10:30.440Z,55.44
2019-04-07T00:12:57.394Z,55.73
2019-04-07T00:15:24.219Z,56.08
2019-04-07T00:17:51.073Z,55.97
2019-04-07T00:20:17.754Z,56.64
2019-04-07T00:22:44.377Z,56.43
2019-04-07T00:25:11.863Z,56.64
2019-04-07T00:27:39.155Z,56.61
2019-04-07T00:30:06.839Z,56.69
2019-04-07T00:32:35.007Z,56.99
2019-04-07T00:35:05.490Z,56.79
2019-04-07T00:37:32.738Z,56.66
2019-04-07T00:39:59.698Z,56.86
2019-04-07T00:42:27.371Z,56.63
2019-04-07T00:44:55.516Z,56.71
2019-04-07T00:47:22.067Z,56.69
2019-04-07T00:49:48.626Z,56.68
2019-04-07T00:52:17.327Z,57.62
2019-04-07T00:54:44.216Z,57.73
2019-04-07T00:57:10.999Z,57.06
2019-04-07T00:59:37.587Z,57.47
2019-04-07T01:02:04.472Z,56.95
2019-04-07T01:04:31.031Z,56.87
2019-04-07T01:06:57.620Z,57.77
2019-04-07T01:09:24.538Z,57.33
2019-04-07T01:11:52.260Z,57.12
2019-04-07T01:14:19.298Z,57.35
2019-04-07T01:16:46.143Z,56.74
2019-04-07T01:19:13.371Z,56.82
2019-04-07T01:21:40.548Z,57.26
2019-04-07T01:24:07.273Z,57.23
2019-04-07T01:26:34.052Z,58.04
2019-04-07T01:29:01.399Z,58.17
2019-04-07T01:31:28.773Z,57.89
2019-04-07T01:33:55.371Z,58.06
2019-04-07T01:36:22.588Z,57.96
2019-04-07T01:38:49.446Z,57.86
2019-04-07T01:41:18.604Z,58.14
2019-04-07T01:43:48.082Z,57.72
2019-04-07T01:46:17.514Z,58.06
2019-04-07T01:48:46.829Z,57.82
2019-04-07T01:51:15.749Z,58.42
2019-04-07T01:53:44.598Z,58.02
2019-04-07T01:56:14.041Z,58.39
2019-04-07T01:58:42.882Z,58.18
2019-04-07T02:01:12.044Z,57.85
2019-04-07T02:03:41.925Z,57.70
2019-04-07T02:06:12.015Z,57.80
2019-04-07T02:08:41.722Z,58.33
2019-04-07T02:11:10.619Z,58.12
2019-04-07T02:13:40.450Z,57.44
2019-04-07T02:16:10.280Z,57.70
2019-04-07T02:18:38.917Z,58.05
2019-04-07T02:21:08.444Z,58.20
2019-04-07T02:23:37.275Z,58.24
2019-04-07T02:26:06.053Z,58.68
2019-04-07T02:28:35.045Z,58.31
2019-04-07T02:31:06.101Z,57.91
2019-04-07T02:33:35.002Z,57.41
2019-04-07T02:36:15.703Z,58.50
2019-04-07T02:38:34.570Z,58.08
2019-04-07T02:41:04.216Z,58.40
2019-04-07T02:43:33.930Z,58.88
2019-04-07T02:46:02.806Z,58.49
2019-04-07T02:48:32.240Z,58.43
2019-04-07T02:51:01.311Z,58.69
2019-04-07T02:53:30.805Z,59.17
2019-04-07T02:55:57.814Z,59.27
2019-04-07T02:58:27.157Z,59.90
2019-04-07T03:00:56.219Z,59.63
2019-04-07T03:03:24.983Z,59.24
2019-04-07T03:05:55.076Z,59.30
2019-04-07T03:08:25.067Z,59.45
2019-04-07T03:10:55.482Z,59.79
2019-04-07T03:13:24.588Z,59.38
2019-04-07T03:15:53.470Z,60.02
2019-04-07T03:18:26.246Z,60.29
2019-04-07T03:20:53.836Z,60.42
2019-04-07T03:23:22.783Z,60.85
2019-04-07T03:25:51.345Z,61.27
2019-04-07T03:28:19.941Z,60.79
2019-04-07T03:30:48.939Z,60.44
2019-04-07T03:33:21.177Z,59.67
2019-04-07T03:35:50.952Z,59.55
2019-04-07T03:38:19.014Z,60.64
2019-04-07T03:40:48.202Z,60.97
2019-04-07T03:43:17.716Z,60.40
2019-04-07T03:45:46.718Z,60.47
2019-04-07T03:48:15.795Z,60.35
2019-04-07T03:50:44.825Z,59.71
2019-04-07T03:53:13.611Z,60.29
2019-04-07T03:55:42.427Z,60.22
2019-04-07T03:58:12.203Z,59.51
2019-04-07T04:00:45.217Z,59.81
2019-04-07T04:03:14.944Z,59.97
2019-04-07T04:05:45.166Z,59.53
2019-04-07T04:08:13.983Z,59.30
2019-04-07T04:10:43.531Z,59.74
2019-04-07T04:13:12.349Z,58.75
2019-04-07T04:15:41.540Z,58.98
2019-04-07T04:18:08.298Z,58.54
2019-04-07T04:20:34.914Z,58.10
2019-04-07T04:23:01.531Z,58.41
2019-04-07T04:25:28.354Z,58.80
2019-04-07T04:27:55.110Z,58.59
2019-04-07T04:30:21.783Z,59.03
2019-04-07T04:32:48.514Z,59.00
2019-04-07T04:35:15.090Z,58.11
2019-04-07T04:37:48.205Z,57.74
2019-04-07T04:40:11.374Z,58.08
2019-04-07T04:42:37.989Z,58.06
2019-04-07T04:45:08.037Z,58.26
2019-04-07T04:47:35.079Z,58.22
2019-04-07T04:50:06.700Z,58.08
2019-04-07T04:52:34.777Z,58.24
2019-04-07T04:55:02.028Z,58.30
2019-04-07T04:57:29.019Z,58.01
2019-04-07T04:59:55.975Z,57.41
2019-04-07T05:02:23.562Z,57.34
2019-04-07T05:04:50.540Z,57.19
2019-04-07T05:07:17.138Z,56.92
2019-04-07T05:09:48.874Z,56.91
2019-04-07T05:12:12.811Z,56.86
2019-04-07T05:14:40.073Z,56.63
2019-04-07T05:17:07.389Z,57.13
2019-04-07T05:19:34.443Z,57.25
2019-04-07T05:22:01.362Z,57.46
2019-04-07T05:24:28.411Z,57.25
2019-04-07T05:26:55.812Z,57.43
2019-04-07T05:29:22.844Z,56.61
2019-04-07T05:31:50.298Z,56.79
2019-04-07T05:34:20.408Z,57.17
2019-04-07T05:36:45.799Z,57.41
2019-04-07T05:39:12.770Z,57.25
2019-04-07T05:41:39.600Z,56.96
2019-04-07T05:44:06.398Z,56.90
2019-04-07T05:46:33.558Z,57.02
2019-04-07T05:49:00.581Z,56.98
2019-04-07T05:51:30.041Z,56.81
2019-04-07T05:53:55.975Z,57.02
2019-04-07T05:56:25.889Z,57.51
2019-04-07T05:58:51.705Z,57.27
2019-04-07T06:01:22.574Z,57.66
2019-04-07T06:03:47.888Z,57.70
2019-04-07T06:06:14.872Z,57.87
2019-04-07T06:08:42.241Z,57.74
2019-04-07T06:11:08.947Z,56.97
2019-04-07T06:13:35.619Z,56.70
2019-04-07T06:16:03.053Z,56.90
2019-04-07T06:18:33.363Z,56.75
2019-04-07T06:20:58.612Z,57.01
2019-04-07T06:23:28.564Z,56.74
2019-04-07T06:25:57.164Z,57.39
2019-04-07T06:28:22.762Z,57.62
2019-04-07T06:30:49.590Z,57.45
2019-04-07T06:33:16.358Z,57.72
2019-04-07T06:35:44.993Z,57.84
2019-04-07T06:38:12.274Z,57.56
2019-04-07T06:40:39.330Z,58.05
2019-04-07T06:43:06.344Z,58.20
2019-04-07T06:45:36.127Z,58.55
2019-04-07T06:48:07.715Z,58.88
2019-04-07T06:50:45.462Z,58.32
2019-04-07T06:53:10.600Z,58.41
2019-04-07T06:55:36.721Z,58.92
2019-04-07T06:58:07.559Z,58.63
2019-04-07T07:00:36.457Z,58.55
2019-04-07T07:03:05.325Z,59.34
2019-04-07T07:05:35.985Z,59.28
2019-04-07T07:08:05.032Z,59.17
2019-04-07T07:10:37.736Z,58.96
2019-04-07T07:13:09.408Z,58.82
2019-04-07T07:15:36.423Z,59.09
2019-04-07T07:18:05.784Z,58.98
2019-04-07T07:20:34.438Z,58.30
2019-04-07T07:23:03.880Z,58.14
2019-04-07T07:25:32.160Z,58.09
2019-04-07T07:28:01.582Z,57.12
2019-04-07T07:30:28.473Z,57.40
2019-04-07T07:32:55.277Z,57.24
2019-04-07T07:35:22.356Z,57.04
2019-04-07T07:37:50.022Z,56.62
2019-04-07T07:40:18.330Z,57.87
2019-04-07T07:42:48.649Z,57.43
2019-04-07T07:45:14.233Z,56.96
2019-04-07T07:47:41.582Z,56.49
2019-04-07T07:50:10.221Z,55.91
2019-04-07T07:52:37.662Z,54.89
2019-04-07T07:55:06.089Z,55.90
2019-04-07T07:57:32.819Z,55.44
2019-04-07T08:00:00.287Z,53.26
2019-04-07T08:02:29.030Z,53.19
2019-04-07T08:04:58.387Z,52.28
2019-04-07T08:07:24.743Z,51.96
2019-04-07T08:09:54.062Z,52.07
2019-04-07T08:12:20.640Z,50.51
2019-04-07T08:14:50.398Z,50.36
2019-04-07T08:17:17.204Z,49.84
2019-04-07T08:19:45.406Z,50.26
2019-04-07T08:22:25.329Z,50.03
2019-04-07T08:24:42.035Z,49.54
2019-04-07T08:27:10.506Z,49.01
2019-04-07T08:29:39.021Z,48.84
2019-04-07T08:32:06.608Z,48.43
2019-04-07T08:34:33.473Z,47.88
2019-04-07T08:37:00.854Z,47.84
2019-04-07T08:39:32.376Z,47.73
2019-04-07T08:41:57.219Z,46.36
2019-04-07T08:44:27.439Z,45.78
2019-04-07T08:46:52.941Z,45.00
2019-04-07T08:49:23.696Z,44.71
2019-04-07T08:51:48.526Z,45.23
2019-04-07T08:54:16.930Z,45.61
2019-04-07T08:56:43.687Z,43.98
2019-04-07T08:59:13.901Z,42.54
2019-04-07T09:01:38.946Z,42.81
2019-04-07T09:04:09.359Z,40.26
2019-04-07T09:06:36.206Z,41.08
2019-04-07T09:09:07.915Z,39.05
2019-04-07T09:11:34.844Z,39.04
2019-04-07T09:14:04.197Z,38.29
2019-04-07T09:16:32.589Z,39.00
2019-04-07T09:19:04.976Z,39.06
2019-04-07T09:21:38.726Z,38.15
2019-04-07T09:24:02.530Z,37.90
2019-04-07T09:26:31.127Z,37.73
2019-04-07T09:28:59.613Z,37.55
2019-04-07T09:31:28.295Z,37.47
2019-04-07T09:33:58.663Z,36.88
2019-04-07T09:36:27.653Z,37.38
2019-04-07T09:39:01.435Z,36.87
2019-04-07T09:41:29.525Z,36.54
2019-04-07T09:44:01.147Z,36.76
2019-04-07T09:46:29.048Z,36.59
2019-04-07T09:48:57.700Z,37.19
2019-04-07T09:51:26.558Z,36.86
2019-04-07T09:53:55.653Z,36.04
2019-04-07T09:56:29.191Z,35.95
2019-04-07T09:58:55.617Z,35.27
2019-04-07T10:01:27.822Z,35.22
2019-04-07T10:03:55.553Z,35.13
2019-04-07T10:06:27.628Z,34.94
2019-04-07T10:08:58.883Z,34.50
2019-04-07T10:11:28.517Z,34.01
2019-04-07T10:13:57.781Z,35.27
2019-04-07T10:16:27.040Z,35.55
2019-04-07T10:18:57.652Z,35.00
2019-04-07T10:21:26.487Z,34.86
2019-04-07T10:23:55.303Z,34.52
2019-04-07T10:26:24.399Z,34.46
2019-04-07T10:28:53.246Z,34.46
2019-04-07T10:31:22.446Z,34.41
2019-04-07T10:33:51.487Z,34.46
2019-04-07T10:36:20.642Z,34.37
2019-04-07T10:38:51.453Z,34.08
2019-04-07T10:41:20.738Z,34.04
2019-04-07T10:43:50.287Z,34.41
2019-04-07T10:46:19.121Z,34.98
2019-04-07T10:48:47.771Z,34.08
2019-04-07T10:51:17.483Z,33.58
2019-04-07T10:53:46.243Z,33.50
2019-04-07T10:56:14.733Z,32.96
2019-04-07T10:58:43.615Z,33.58
2019-04-07T11:01:12.631Z,33.77
2019-04-07T11:03:41.327Z,34.50
2019-04-07T11:06:09.895Z,34.55
2019-04-07T11:08:38.416Z,34.40
2019-04-07T11:11:07.879Z,33.99
2019-04-07T11:13:36.520Z,33.67
2019-04-07T11:16:08.146Z,33.73
2019-04-07T11:18:36.740Z,33.69
2019-04-07T11:21:05.546Z,33.62
2019-04-07T11:23:34.852Z,33.72
2019-04-07T11:26:04.556Z,33.78
2019-04-07T11:28:34.083Z,33.91
2019-04-07T11:31:02.566Z,34.22
2019-04-07T11:33:31.914Z,33.72
2019-04-07T11:36:00.708Z,33.52
2019-04-07T11:38:32.289Z,33.39
2019-04-07T11:41:02.554Z,33.20
2019-04-07T11:43:32.534Z,32.77
2019-04-07T11:46:03.274Z,32.72
2019-04-07T11:48:33.104Z,32.35
2019-04-07T11:51:02.102Z,32.05
2019-04-07T11:53:30.775Z,31.79
2019-04-07T11:56:01.476Z,31.91
2019-04-07T11:58:33.218Z,32.07
2019-04-07T12:01:00.722Z,31.80
2019-04-07T12:03:29.948Z,32.47
2019-04-07T12:05:59.792Z,31.90
2019-04-07T12:08:33.390Z,32.22
2019-04-07T12:11:02.834Z,32.06
2019-04-07T12:13:31.284Z,31.34
2019-04-07T12:16:00.410Z,31.10
2019-04-07T12:18:29.780Z,31.13
2019-04-07T12:21:02.486Z,31.68
2019-04-07T12:23:29.182Z,31.75
2019-04-07T12:25:57.894Z,31.98
2019-04-07T12:28:26.833Z,31.41
2019-04-07T12:30:56.364Z,31.75
2019-04-07T12:33:25.308Z,31.40
2019-04-07T12:35:56.039Z,31.69
2019-04-07T12:38:25.267Z,31.87
2019-04-07T12:41:03.986Z,31.29
2019-04-07T12:43:24.976Z,31.19
2019-04-07T12:45:53.756Z,31.10
2019-04-07T12:48:23.105Z,31.36
2019-04-07T12:50:52.339Z,30.92
2019-04-07T12:53:21.916Z,30.75
2019-04-07T12:55:57.581Z,30.15
2019-04-07T12:58:21.457Z,29.96
2019-04-07T13:00:57.771Z,30.80
2019-04-07T13:03:21.154Z,31.27
2019-04-07T13:05:50.895Z,30.93
2019-04-07T13:08:22.590Z,30.48
2019-04-07T13:10:51.177Z,30.11
2019-04-07T13:13:22.280Z,30.14
2019-04-07T13:15:51.284Z,29.93
2019-04-07T13:18:20.571Z,29.97
2019-04-07T13:20:51.053Z,30.00
2019-04-07T13:23:19.795Z,29.68
2019-04-07T13:25:53.173Z,29.84
2019-04-07T13:28:19.543Z,29.75
2019-04-07T13:30:48.830Z,30.45
2019-04-07T13:33:20.390Z,29.36
2019-04-07T13:35:48.880Z,29.31
2019-04-07T13:38:17.625Z,30.16
2019-04-07T13:40:47.257Z,29.52
2019-04-07T13:43:16.557Z,29.99
2019-04-07T13:45:46.288Z,29.85
2019-04-07T13:48:17.556Z,29.74
2019-04-07T13:50:44.954Z,29.18
2019-04-07T13:53:14.558Z,29.79
2019-04-07T13:55:44.173Z,30.08
2019-04-07T13:58:14.039Z,30.13
2019-04-07T14:00:42.940Z,29.08
2019-04-07T14:03:14.523Z,29.25
2019-04-07T14:05:43.184Z,29.93
2019-04-07T14:08:11.817Z,28.99
2019-04-07T14:10:39.331Z,29.47
2019-04-07T14:13:11.002Z,28.99
2019-04-07T14:15:39.623Z,28.92
2019-04-07T14:18:08.971Z,29.17
2019-04-07T14:20:38.657Z,28.65
2019-04-07T14:23:08.465Z,29.17
2019-04-07T14:25:37.533Z,28.25
2019-04-07T14:28:06.155Z,27.50
2019-04-07T14:30:35.446Z,28.26
2019-04-07T14:33:04.607Z,28.04
2019-04-07T14:35:33.607Z,27.38
2019-04-07T14:38:02.658Z,28.07
2019-04-07T14:40:31.865Z,27.88
2019-04-07T14:43:01.144Z,28.00
2019-04-07T14:45:29.992Z,28.38
2019-04-07T14:48:02.160Z,27.72
2019-04-07T14:50:32.092Z,27.54
2019-04-07T14:53:00.940Z,27.55
2019-04-07T14:55:30.287Z,27.36
2019-04-07T14:57:59.059Z,27.97
2019-04-07T15:00:28.121Z,28.02
2019-04-07T15:02:55.450Z,28.53
2019-04-07T15:05:25.369Z,28.11
2019-04-07T15:07:57.947Z,28.21
2019-04-07T15:10:25.038Z,28.77
2019-04-07T15:12:53.579Z,29.37
2019-04-07T15:15:21.281Z,29.04
2019-04-07T15:17:48.814Z,29.58
2019-04-07T15:20:17.636Z,29.17
2019-04-07T15:22:46.831Z,29.32
2019-04-07T15:25:13.345Z,30.18
2019-04-07T15:27:40.473Z,30.50
2019-04-07T15:30:13.266Z,30.07
2019-04-07T15:32:38.275Z,29.94
2019-04-07T15:35:06.263Z,30.25
2019-04-07T15:37:33.666Z,31.03
2019-04-07T15:40:02.677Z,30.69
2019-04-07T15:42:36.020Z,30.43
2019-04-07T15:44:57.756Z,30.34
2019-04-07T15:47:24.456Z,29.99
2019-04-07T15:49:51.357Z,30.48
2019-04-07T15:52:19.593Z,30.77
2019-04-07T15:54:46.874Z,31.13
2019-04-07T15:57:13.507Z,31.42
2019-04-07T15:59:42.378Z,32.19
2019-04-07T16:02:11.229Z,31.97
2019-04-07T16:04:38.276Z,33.03
2019-04-07T16:07:05.190Z,32.95
2019-04-07T16:09:41.992Z,32.30
2019-04-07T16:12:01.907Z,31.74
2019-04-07T16:14:28.663Z,32.66
2019-04-07T16:16:55.520Z,32.99
2019-04-07T16:19:35.055Z,33.48
2019-04-07T16:21:52.322Z,34.28
2019-04-07T16:24:21.942Z,34.49
2019-04-07T16:26:47.939Z,35.04
2019-04-07T16:29:17.772Z,34.54
2019-04-07T16:31:43.648Z,34.07
2019-04-07T16:34:10.745Z,35.00
2019-04-07T16:36:38.394Z,34.75
2019-04-07T16:39:09.330Z,35.01
2019-04-07T16:41:36.794Z,35.48
2019-04-07T16:44:06.989Z,36.50
2019-04-07T16:46:32.532Z,36.28
2019-04-07T16:48:59.794Z,36.85
2019-04-07T16:51:29.439Z,36.99
2019-04-07T16:53:57.226Z,37.32
2019-04-07T16:56:23.843Z,37.09
2019-04-07T16:58:50.461Z,37.59
2019-04-07T17:01:17.425Z,38.37
2019-04-07T17:03:45.261Z,38.69
2019-04-07T17:06:12.470Z,39.16
2019-04-07T17:08:44.149Z,39.64
2019-04-07T17:11:11.128Z,39.95
2019-04-07T17:13:42.672Z,40.61
2019-04-07T17:16:10.996Z,40.95
2019-04-07T17:18:41.755Z,41.21
2019-04-07T17:21:13.988Z,41.46
2019-04-07T17:23:45.512Z,41.75
2019-04-07T17:26:13.640Z,42.21
2019-04-07T17:28:44.612Z,42.63
2019-04-07T17:31:09.645Z,43.24
2019-04-07T17:33:37.925Z,43.53
2019-04-07T17:36:06.620Z,43.70
2019-04-07T17:38:38.266Z,43.73
2019-04-07T17:41:07.923Z,44.25
2019-04-07T17:43:47.327Z,44.49
2019-04-07T17:46:06.665Z,44.64
2019-04-07T17:48:41.000Z,44.83
2019-04-07T17:51:07.760Z,44.98
2019-04-07T17:53:38.105Z,45.36
2019-04-07T17:56:07.165Z,45.55
2019-04-07T18:01:24.685Z,46.27
2019-04-07T18:03:56.151Z,46.66
2019-04-07T18:06:24.065Z,46.80
2019-04-07T18:09:03.969Z,46.89
2019-04-07T18:11:25.123Z,47.20
2019-04-07T18:13:56.648Z,47.33
2019-04-07T18:16:22.549Z,47.49
2019-04-07T18:18:56.258Z,47.85
2019-04-07T18:21:23.168Z,48.19
2019-04-07T18:23:53.933Z,48.70
2019-04-07T18:26:20.716Z,48.78
2019-04-07T18:28:53.343Z,48.94
2019-04-07T18:31:20.078Z,49.29
2019-04-07T18:33:50.742Z,49.33
2019-04-07T18:36:19.584Z,49.65
2019-04-07T18:38:50.260Z,49.80
2019-04-07T18:41:20.724Z,50.08
2019-04-07T18:43:57.821Z,50.57
2019-04-07T18:46:21.400Z,50.91
2019-04-07T18:48:50.177Z,51.06
2019-04-07T18:51:20.099Z,51.21
2019-04-07T18:53:48.900Z,51.61
2019-04-07T18:56:20.097Z,52.01
2019-04-07T18:58:50.865Z,52.22
2019-04-07T19:01:18.647Z,52.47
2019-04-07T19:03:51.040Z,52.62
2019-04-07T19:06:18.110Z,52.48
2019-04-07T19:08:49.418Z,52.35
2019-04-07T19:11:18.197Z,52.74
2019-04-07T19:13:47.984Z,53.15
2019-04-07T19:16:20.468Z,53.00
2019-04-07T19:18:48.807Z,53.00
2019-04-07T19:21:18.327Z,53.17
2019-04-07T19:23:47.257Z,53.56
2019-04-07T19:26:18.200Z,53.34
2019-04-07T19:28:46.560Z,53.60
2019-04-07T19:31:17.481Z,53.86
2019-04-07T19:33:45.593Z,54.28
2019-04-07T19:36:16.774Z,54.07
2019-04-07T19:38:47.503Z,54.29
2019-04-07T19:41:15.398Z,54.24
2019-04-07T19:43:44.657Z,54.02
2019-04-07T19:46:13.538Z,54.32
2019-04-07T19:48:42.754Z,54.50
2019-04-07T19:51:11.535Z,54.68
2019-04-07T19:53:43.246Z,54.87
2019-04-07T19:56:10.274Z,55.02
2019-04-07T19:58:39.459Z,55.42
2019-04-07T20:01:08.368Z,55.71
2019-04-07T20:03:39.876Z,55.90
2019-04-07T20:06:07.990Z,56.03
2019-04-07T20:08:37.435Z,56.34
2019-04-07T20:11:06.381Z,56.32
2019-04-07T20:13:39.501Z,56.37
2019-04-07T20:16:08.191Z,56.11
2019-04-07T20:18:37.402Z,56.08
2019-04-07T20:21:08.285Z,55.97
2019-04-07T20:23:37.123Z,55.51
2019-04-07T20:26:05.948Z,55.66
2019-04-07T20:28:34.561Z,55.50
2019-04-07T20:31:04.370Z,55.02
2019-04-07T20:33:34.452Z,54.58
2019-04-07T20:36:03.216Z,54.36
2019-04-07T20:38:31.932Z,54.38
2019-04-07T20:41:00.674Z,55.24
2019-04-07T20:43:29.265Z,56.05
2019-04-07T20:45:58.762Z,58.04
2019-04-07T20:48:31.601Z,57.64
2019-04-07T20:50:58.349Z,58.00
2019-04-07T20:53:29.697Z,59.90
2019-04-07T20:55:58.214Z,60.42
2019-04-07T20:58:41.606Z,60.12
2019-04-07T21:01:02.457Z,60.49
2019-04-07T21:03:28.878Z,61.10
2019-04-07T21:05:58.123Z,61.13
2019-04-07T21:08:30.223Z,61.13
2019-04-07T21:10:58.110Z,60.71
2019-04-07T21:13:26.795Z,61.05
2019-04-07T21:15:55.427Z,61.13
2019-04-07T21:18:24.349Z,60.61
2019-04-07T21:20:54.815Z,60.33
2019-04-07T21:23:23.801Z,59.88
2019-04-07T21:25:55.112Z,60.67
2019-04-07T21:28:23.360Z,61.61
2019-04-07T21:30:52.014Z,61.62
2019-04-07T21:33:23.792Z,61.67
2019-04-07T21:35:52.494Z,62.19
2019-04-07T21:38:24.252Z,62.53
2019-04-07T21:40:52.044Z,62.38
2019-04-07T21:43:24.314Z,62.60
2019-04-07T21:45:54.180Z,62.32
2019-04-07T21:48:22.083Z,62.48
2019-04-07T21:50:51.592Z,62.31
2019-04-07T21:53:22.531Z,62.30
2019-04-07T21:55:51.048Z,61.98
2019-04-07T21:58:22.024Z,61.53
2019-04-07T22:00:51.008Z,61.51
2019-04-07T22:03:21.031Z,62.02
2019-04-07T22:05:49.039Z,62.43
2019-04-07T22:08:19.970Z,63.23
2019-04-07T22:10:47.894Z,64.24
2019-04-07T22:13:15.515Z,64.26
2019-04-07T22:15:48.223Z,64.12
2019-04-07T22:18:11.143Z,64.28
2019-04-07T22:20:39.021Z,64.07
2019-04-07T22:23:09.279Z,64.05
2019-04-07T22:25:40.949Z,63.95
2019-04-07T22:28:08.079Z,64.36
2019-04-07T22:30:40.111Z,64.09
2019-04-07T22:33:04.143Z,64.15
2019-04-07T22:35:31.977Z,64.56
2019-04-07T22:37:58.914Z,64.42
2019-04-07T22:40:26.650Z,64.88
2019-04-07T22:42:54.164Z,64.80
2019-04-07T22:45:25.310Z,65.36
2019-04-07T22:47:52.441Z,65.31
2019-04-07T22:50:18.674Z,65.00
2019-04-07T22:52:49.201Z,64.73
2019-04-07T22:55:14.371Z,65.15
2019-04-07T22:57:41.958Z,64.98
2019-04-07T23:00:12.790Z,65.69
2019-04-07T23:02:42.308Z,65.98
2019-04-07T23:05:09.604Z,66.04
2019-04-07T23:07:36.273Z,66.42
2019-04-07T23:10:04.648Z,66.09
2019-04-07T23:12:32.849Z,66.58
2019-04-07T23:14:59.771Z,67.00
2019-04-07T23:17:26.353Z,67.10
2019-04-07T23:19:53.174Z,66.70
2019-04-07T23:22:20.126Z,66.57
2019-04-07T23:24:47.433Z,66.56
2019-04-07T23:27:14.569Z,66.92
2019-04-07T23:29:44.418Z,66.76
2019-04-07T23:32:11.705Z,66.69
2019-04-07T23:34:39.420Z,66.78
2019-04-07T23:37:06.540Z,66.92
2019-04-07T23:39:33.461Z,66.91
2019-04-07T23:42:00.692Z,66.43
2019-04-07T23:44:27.726Z,66.54
2019-04-07T23:46:55.079Z,66.60
2019-04-07T23:49:22.537Z,66.44
2019-04-07T23:51:49.276Z,66.11
2019-04-07T23:54:16.452Z,66.91
2019-04-07T23:56:43.801Z,67.07
2019-04-07T23:59:11.860Z,67.51
